Time;durP1;ratioP1;P1;durP2;ratioP2;P2;SDS_P1;SDS_P2;PMS_P1;PMS_P2;Temp;Humidity;BMP_temperature;BMP_pressure;BME280_temperature;BME280_humidity;BME280_pressure;Samples;Min_cycle;Max_cycle;Signal;HPM_P1;HPM_P2
2023/04/29 05:38:27;;;;;;;12.73;8.73;;;;;;;;;;4939809;29;20215;-94
2023/04/29 05:43:40;;;;;;;7.90;6.60;;;;;;;;;;4924385;29;20194;-95
2023/04/29 05:46:07;;;;;;;8.53;6.83;;;;;;;;;;4940456;29;20574;-94
2023/04/29 05:48:34;;;;;;;7.97;5.77;;;;;;;;;;4938948;29;20218;-93
2023/04/29 05:51:04;;;;;;;9.77;7.87;;;;;;;;;;4937731;29;20221;-95
2023/04/29 05:53:32;;;;;;;7.27;6.50;;;;;;;;;;4937079;29;20217;-95
2023/04/29 05:55:59;;;;;;;10.17;6.93;;;;;;;;;;4936485;29;20218;-95
2023/04/29 05:58:25;;;;;;;6.97;6.20;;;;;;;;;;4936825;29;20210;-95
2023/04/29 06:00:52;;;;;;;6.37;5.77;;;;;;;;;;4936213;29;20238;-94
2023/04/29 06:03:19;;;;;;;5.97;5.43;;;;;;;;;;4935242;29;20206;-95
2023/04/29 06:05:46;;;;;;;11.17;8.23;;;;;;;;;;4935250;29;20678;-95
2023/04/29 06:08:17;;;;;;;8.37;6.27;;;;;;;;;;4934765;29;20239;-95
2023/04/29 06:10:44;;;;;;;9.37;7.10;;;;;;;;;;4935170;29;20207;-94
2023/04/29 06:13:12;;;;;;;7.63;5.73;;;;;;;;;;4937518;29;20253;-94
2023/04/29 06:15:39;;;;;;;7.80;6.33;;;;;;;;;;4934855;29;20207;-93
2023/04/29 06:18:06;;;;;;;5.40;4.90;;;;;;;;;;4935458;29;20701;-95
2023/04/29 06:20:33;;;;;;;6.30;4.70;;;;;;;;;;4936017;29;20229;-94
2023/04/29 06:23:00;;;;;;;4.07;3.67;;;;;;;;;;4937928;29;20215;-92
2023/04/29 06:25:28;;;;;;;6.77;4.40;;;;;;;;;;4938490;29;20278;-93
2023/04/29 06:27:55;;;;;;;5.37;4.27;;;;;;;;;;4938106;29;20281;-93
2023/04/29 06:30:22;;;;;;;4.77;4.37;;;;;;;;;;4937832;29;20215;-93
2023/04/29 06:32:49;;;;;;;4.07;3.67;;;;;;;;;;4937743;29;20286;-93
2023/04/29 06:35:16;;;;;;;3.67;3.37;;;;;;;;;;4944010;29;20233;-93
2023/04/29 06:37:42;;;;;;;3.97;3.57;;;;;;;;;;4957296;28;20237;-94
2023/04/29 06:40:12;;;;;;;4.30;3.77;;;;;;;;;;4957066;28;20755;-93
2023/04/29 06:42:40;;;;;;;4.13;3.60;;;;;;;;;;4957221;28;20210;-93
2023/04/29 06:45:07;;;;;;;6.97;3.37;;;;;;;;;;4938132;29;20641;-94
2023/04/29 06:47:34;;;;;;;6.07;3.23;;;;;;;;;;4951499;29;20284;-93
2023/04/29 06:50:01;;;;;;;4.50;3.70;;;;;;;;;;4957096;29;20206;-94
2023/04/29 06:52:28;;;;;;;4.63;3.53;;;;;;;;;;4956769;29;20247;-93
2023/04/29 06:54:55;;;;;;;4.03;3.60;;;;;;;;;;4956889;28;20251;-95
2023/04/29 06:57:22;;;;;;;13.63;9.70;;;;;;;;;;4956594;28;20213;-93
2023/04/29 06:59:51;;;;;;;16.17;11.20;;;;;;;;;;4956746;28;20288;-93
2023/04/29 07:02:17;;;;;;;5.07;4.43;;;;;;;;;;4956835;29;20201;-93
2023/04/29 07:04:44;;;;;;;9.17;8.33;;;;;;;;;;4956643;29;20217;-94
2023/04/29 07:07:12;;;;;;;7.10;4.13;;;;;;;;;;4956558;29;20217;-95
2023/04/29 07:09:41;;;;;;;4.97;3.07;;;;;;;;;;4956816;29;20208;-93
2023/04/29 07:12:08;;;;;;;2.70;2.50;;;;;;;;;;4956221;29;20206;-93
2023/04/29 07:14:36;;;;;;;4.70;3.27;;;;;;;;;;4956503;28;20206;-93
2023/04/29 07:17:04;;;;;;;5.73;3.20;;;;;;;;;;4956532;28;20237;-94
2023/04/29 07:19:31;;;;;;;3.27;2.97;;;;;;;;;;4955986;28;20656;-93
2023/04/29 07:21:58;;;;;;;4.03;3.10;;;;;;;;;;4956365;29;20236;-93
2023/04/29 07:24:25;;;;;;;4.97;2.70;;;;;;;;;;4956252;29;20227;-92
2023/04/29 07:26:52;;;;;;;4.57;2.80;;;;;;;;;;4956205;29;21655;-93
2023/04/29 07:29:19;;;;;;;2.90;2.70;;;;;;;;;;4956590;29;20237;-92
2023/04/29 07:31:46;;;;;;;3.73;2.73;;;;;;;;;;4959537;28;20220;-93
2023/04/29 07:34:14;;;;;;;2.60;2.33;;;;;;;;;;4975800;28;20204;-93
2023/04/29 07:36:41;;;;;;;2.83;2.57;;;;;;;;;;4957947;28;20315;-93
2023/04/29 07:39:08;;;;;;;4.13;2.60;;;;;;;;;;4955959;29;20217;-93
2023/04/29 07:41:35;;;;;;;4.43;2.90;;;;;;;;;;4955871;29;20237;-93
2023/04/29 07:44:01;;;;;;;6.43;3.10;;;;;;;;;;4956062;29;20268;-93
2023/04/29 07:46:28;;;;;;;4.23;3.83;;;;;;;;;;4955928;29;20281;-93
2023/04/29 07:48:57;;;;;;;3.73;3.03;;;;;;;;;;4955964;29;20225;-93
2023/04/29 07:51:27;;;;;;;4.40;2.57;;;;;;;;;;4955570;29;20217;-92
2023/04/29 07:53:57;;;;;;;3.93;3.53;;;;;;;;;;4955877;28;20244;-93
2023/04/29 07:56:23;;;;;;;3.53;3.23;;;;;;;;;;4943195;29;20368;-93
2023/04/29 07:58:50;;;;;;;2.70;2.50;;;;;;;;;;4955086;28;20526;-93
2023/04/29 08:01:17;;;;;;;2.87;2.20;;;;;;;;;;4955547;29;20716;-93
2023/04/29 08:03:44;;;;;;;4.57;2.33;;;;;;;;;;4955377;29;20281;-94
2023/04/29 08:06:12;;;;;;;2.93;2.73;;;;;;;;;;4937348;29;20245;-94
2023/04/29 08:08:41;;;;;;;6.30;2.80;;;;;;;;;;4949819;29;20229;-94
2023/04/29 08:11:08;;;;;;;4.97;2.87;;;;;;;;;;4955752;29;20221;-93
2023/04/29 08:13:37;;;;;;;2.60;2.23;;;;;;;;;;4954986;29;20278;-92
2023/04/29 08:16:04;;;;;;;5.27;2.63;;;;;;;;;;4954964;29;20221;-93
2023/04/29 08:18:31;;;;;;;2.77;2.50;;;;;;;;;;4955196;29;20215;-93
2023/04/29 08:20:59;;;;;;;2.93;2.63;;;;;;;;;;4955335;28;20303;-93
2023/04/29 08:23:26;;;;;;;5.03;2.23;;;;;;;;;;4955216;28;20219;-92
2023/04/29 08:25:54;;;;;;;3.43;2.00;;;;;;;;;;4955273;28;20215;-92
2023/04/29 08:28:21;;;;;;;2.20;2.00;;;;;;;;;;4957555;28;20223;-92
2023/04/29 08:30:48;;;;;;;3.43;2.03;;;;;;;;;;4965301;28;20240;-92
2023/04/29 08:33:15;;;;;;;2.50;2.30;;;;;;;;;;4955088;29;20222;-93
2023/04/29 08:35:42;;;;;;;2.37;2.13;;;;;;;;;;4955008;28;20243;-93
2023/04/29 08:38:09;;;;;;;2.90;2.17;;;;;;;;;;4954724;28;20286;-93
2023/04/29 08:40:37;;;;;;;2.30;2.10;;;;;;;;;;4955050;29;20285;-93
2023/04/29 08:43:08;;;;;;;3.97;2.23;;;;;;;;;;4954148;28;20217;-95
2023/04/29 08:45:35;;;;;;;2.40;2.20;;;;;;;;;;4955140;28;20631;-92
2023/04/29 08:48:03;;;;;;;2.73;2.53;;;;;;;;;;4954930;29;20214;-94
2023/04/29 08:50:30;;;;;;;4.47;3.27;;;;;;;;;;4955030;28;20729;-92
2023/04/29 08:52:57;;;;;;;34.17;19.97;;;;;;;;;;4954721;28;20218;-94
2023/04/29 08:55:25;;;;;;;4.57;4.10;;;;;;;;;;4954517;29;20715;-93
2023/04/29 08:57:52;;;;;;;4.20;3.77;;;;;;;;;;4967600;28;20658;-94
2023/04/29 09:00:24;;;;;;;4.43;2.97;;;;;;;;;;4954310;29;20212;-93
2023/04/29 09:02:56;;;;;;;3.20;2.90;;;;;;;;;;4942067;28;20219;-93
2023/04/29 09:05:25;;;;;;;4.33;3.40;;;;;;;;;;4954495;28;20270;-95
2023/04/29 09:07:52;;;;;;;4.20;3.40;;;;;;;;;;4954101;29;20205;-94
2023/04/29 09:10:19;;;;;;;2.50;2.30;;;;;;;;;;4954239;29;20263;-95
2023/04/29 09:12:47;;;;;;;7.00;2.63;;;;;;;;;;4954357;28;20286;-96
2023/04/29 09:15:17;;;;;;;2.40;2.20;;;;;;;;;;4954201;29;20734;-93
2023/04/29 09:17:47;;;;;;;3.03;2.73;;;;;;;;;;4954662;29;20218;-94
2023/04/29 09:20:26;;;;;;;3.97;3.00;;;;;;;;;;4967133;28;20222;-94
2023/04/29 09:22:55;;;;;;;4.30;2.47;;;;;;;;;;4954492;29;20738;-95
2023/04/29 09:25:22;;;;;;;4.70;2.40;;;;;;;;;;4953839;29;20212;-93
2023/04/29 09:27:49;;;;;;;4.03;2.80;;;;;;;;;;4954798;28;20216;-95
2023/04/29 09:30:16;;;;;;;3.23;2.60;;;;;;;;;;4954594;28;20215;-93
2023/04/29 09:32:43;;;;;;;3.70;3.30;;;;;;;;;;4954675;29;20228;-93
2023/04/29 09:35:26;;;;;;;2.60;2.40;;;;;;;;;;4959845;28;20239;-94
2023/04/29 09:37:53;;;;;;;2.80;2.17;;;;;;;;;;4959606;28;20217;-94
2023/04/29 09:40:36;;;;;;;6.17;3.23;;;;;;;;;;4954500;29;20303;-94
2023/04/29 09:43:03;;;;;;;2.30;2.10;;;;;;;;;;4954314;29;20216;-94
2023/04/29 09:45:40;;;;;;;3.37;2.03;;;;;;;;;;4953994;29;20215;-93
2023/04/29 09:48:09;;;;;;;2.53;2.33;;;;;;;;;;4954406;29;20216;-94
2023/04/29 09:50:38;;;;;;;2.80;2.53;;;;;;;;;;4954916;28;20238;-94
2023/04/29 09:53:06;;;;;;;4.47;2.00;;;;;;;;;;4954000;28;20679;-94
2023/04/29 09:55:33;;;;;;;2.77;2.10;;;;;;;;;;4957211;28;20216;-93
2023/04/29 09:58:00;;;;;;;4.03;2.53;;;;;;;;;;4957983;29;20216;-91
2023/04/29 10:00:31;;;;;;;3.00;2.10;;;;;;;;;;4958064;29;20311;-93
2023/04/29 10:03:00;;;;;;;5.13;2.90;;;;;;;;;;4957517;29;20320;-94
2023/04/29 10:05:28;;;;;;;4.30;2.53;;;;;;;;;;4957575;29;20208;-94
2023/04/29 10:07:58;;;;;;;3.97;2.27;;;;;;;;;;4965999;28;20592;-93
2023/04/29 10:10:26;;;;;;;2.37;2.17;;;;;;;;;;4962157;28;20213;-94
2023/04/29 10:12:53;;;;;;;2.63;2.10;;;;;;;;;;4958133;29;20264;-95
2023/04/29 10:15:27;;;;;;;4.37;2.40;;;;;;;;;;4957628;28;20211;-93
2023/04/29 10:18:00;;;;;;;2.33;2.00;;;;;;;;;;4957582;28;20219;-94
2023/04/29 10:20:27;;;;;;;2.33;2.17;;;;;;;;;;4957622;28;20205;-95
2023/04/29 10:22:58;;;;;;;2.57;1.80;;;;;;;;;;4957341;29;20783;-94
2023/04/29 10:25:26;;;;;;;4.63;2.60;;;;;;;;;;4957552;29;20746;-94
2023/04/29 10:27:55;;;;;;;5.43;2.80;;;;;;;;;;4957199;29;20263;-93
2023/04/29 10:30:22;;;;;;;3.47;2.10;;;;;;;;;;4957632;28;20247;-94
2023/04/29 10:32:50;;;;;;;2.20;2.00;;;;;;;;;;4957194;29;20212;-95
2023/04/29 10:35:18;;;;;;;5.60;2.60;;;;;;;;;;4975975;28;20250;-93
2023/04/29 10:37:47;;;;;;;2.33;2.20;;;;;;;;;;4963397;28;20241;-95
2023/04/29 10:40:19;;;;;;;3.77;2.40;;;;;;;;;;4957318;29;20248;-95
2023/04/29 10:42:48;;;;;;;2.77;2.20;;;;;;;;;;4957208;29;20236;-93
2023/04/29 10:45:21;;;;;;;6.40;2.50;;;;;;;;;;4957145;29;20260;-95
2023/04/29 10:48:12;;;;;;;4.87;2.93;;;;;;;;;;4957159;28;20584;-96
2023/04/29 10:51:04;;;;;;;4.93;2.20;;;;;;;;;;4956820;28;20212;-94
2023/04/29 10:53:31;;;;;;;3.00;2.23;;;;;;;;;;4956560;28;20310;-94
2023/04/29 10:56:05;;;;;;;3.17;2.30;;;;;;;;;;4959879;28;20209;-95
2023/04/29 10:58:41;;;;;;;4.47;2.97;;;;;;;;;;4956712;29;20307;-95
2023/04/29 11:01:11;;;;;;;4.50;2.80;;;;;;;;;;4956516;29;20216;-95
2023/04/29 11:03:49;;;;;;;6.27;2.20;;;;;;;;;;4969519;28;20241;-94
2023/04/29 11:06:16;;;;;;;3.47;2.43;;;;;;;;;;4956031;28;20275;-95
2023/04/29 11:08:43;;;;;;;7.03;3.50;;;;;;;;;;4956848;28;20216;-95
2023/04/29 11:11:13;;;;;;;3.73;2.30;;;;;;;;;;4956702;29;20212;-94
2023/04/29 11:13:40;;;;;;;4.67;2.47;;;;;;;;;;4956599;28;20308;-93
2023/04/29 11:16:08;;;;;;;2.57;2.37;;;;;;;;;;4956801;29;20221;-94
2023/04/29 11:18:36;;;;;;;5.70;2.63;;;;;;;;;;4956340;29;20696;-94
2023/04/29 11:21:13;;;;;;;5.97;2.10;;;;;;;;;;4956732;28;20217;-94
2023/04/29 11:23:41;;;;;;;18.43;9.43;;;;;;;;;;4960255;28;20220;-94
2023/04/29 11:26:09;;;;;;;14.47;7.70;;;;;;;;;;4964942;28;20211;-95
2023/04/29 11:28:37;;;;;;;26.50;14.20;;;;;;;;;;4956427;28;20754;-94
2023/04/29 11:31:07;;;;;;;11.90;7.40;;;;;;;;;;4956276;29;20750;-94
2023/04/29 11:33:34;;;;;;;4.03;3.20;;;;;;;;;;4956111;29;20707;-96
2023/04/29 11:36:01;;;;;;;6.20;4.83;;;;;;;;;;4944366;29;20663;-93
2023/04/29 11:38:29;;;;;;;5.77;4.87;;;;;;;;;;4937173;29;20209;-94
2023/04/29 11:40:56;;;;;;;7.07;5.23;;;;;;;;;;4937101;29;20228;-94
2023/04/29 11:43:23;;;;;;;8.90;5.77;;;;;;;;;;4924140;29;20707;-93
2023/04/29 11:45:52;;;;;;;3.50;3.20;;;;;;;;;;4924393;29;20302;-95
2023/04/29 11:48:19;;;;;;;13.00;4.40;;;;;;;;;;4936511;29;20258;-94
2023/04/29 11:50:46;;;;;;;7.87;4.63;;;;;;;;;;4936542;29;20297;-95
2023/04/29 11:53:12;;;;;;;8.53;6.40;;;;;;;;;;4917717;29;20291;-94
2023/04/29 11:55:42;;;;;;;3.17;2.40;;;;;;;;;;4931263;29;20214;-94
2023/04/29 11:58:09;;;;;;;5.10;3.97;;;;;;;;;;4936710;29;20222;-95
2023/04/29 12:00:35;;;;;;;7.80;4.20;;;;;;;;;;4936710;29;20684;-95
2023/04/29 12:03:08;;;;;;;5.27;3.57;;;;;;;;;;4938674;29;21313;-95
2023/04/29 12:05:35;;;;;;;4.90;2.73;;;;;;;;;;4936727;29;20251;-94
2023/04/29 12:08:02;;;;;;;5.40;3.27;;;;;;;;;;4936713;29;20216;-95
2023/04/29 12:10:28;;;;;;;3.63;3.33;;;;;;;;;;4936801;29;20221;-95
2023/04/29 12:12:55;;;;;;;4.33;3.93;;;;;;;;;;4936615;29;20227;-93
2023/04/29 12:15:22;;;;;;;5.70;3.77;;;;;;;;;;4936687;29;20217;-96
2023/04/29 12:17:49;;;;;;;4.50;2.63;;;;;;;;;;4935931;29;20589;-94
2023/04/29 12:20:18;;;;;;;4.67;2.50;;;;;;;;;;4936470;29;20252;-94
2023/04/29 12:22:46;;;;;;;3.10;2.80;;;;;;;;;;4936165;29;20228;-96
2023/04/29 12:25:13;;;;;;;2.97;2.60;;;;;;;;;;4936482;29;20218;-95
2023/04/29 12:27:41;;;;;;;4.60;3.10;;;;;;;;;;4935983;29;20216;-95
2023/04/29 12:30:09;;;;;;;2.60;2.33;;;;;;;;;;4936139;29;20259;-94
2023/04/29 12:32:36;;;;;;;3.57;2.90;;;;;;;;;;4935697;29;20772;-94
2023/04/29 12:35:06;;;;;;;3.13;2.67;;;;;;;;;;4936909;29;20263;-95
2023/04/29 12:37:36;;;;;;;3.73;2.70;;;;;;;;;;4948302;29;20238;-94
2023/04/29 12:40:05;;;;;;;4.43;2.83;;;;;;;;;;4936527;28;20212;-94
2023/04/29 12:42:33;;;;;;;2.37;2.13;;;;;;;;;;4935980;29;20237;-95
2023/04/29 12:44:59;;;;;;;3.50;2.70;;;;;;;;;;4923208;29;20296;-95
2023/04/29 12:47:33;;;;;;;3.73;3.17;;;;;;;;;;4935257;29;20713;-94
2023/04/29 12:50:01;;;;;;;2.37;2.17;;;;;;;;;;4936249;29;20203;-95
2023/04/29 12:52:27;;;;;;;5.13;2.57;;;;;;;;;;4935898;29;20211;-95
2023/04/29 12:54:56;;;;;;;5.60;2.30;;;;;;;;;;4944519;29;20214;-95
2023/04/29 12:57:25;;;;;;;4.53;2.43;;;;;;;;;;4941652;29;20208;-95
2023/04/29 12:59:52;;;;;;;2.67;2.37;;;;;;;;;;4937173;29;20205;-95
2023/04/29 13:02:19;;;;;;;2.43;2.23;;;;;;;;;;4936366;29;20230;-96
2023/04/29 13:04:45;;;;;;;3.47;2.07;;;;;;;;;;4936425;29;20207;-95
2023/04/29 13:07:12;;;;;;;4.03;2.63;;;;;;;;;;4937552;29;20205;-96
2023/04/29 13:09:40;;;;;;;5.13;3.03;;;;;;;;;;4937758;29;20627;-95
2023/04/29 13:12:08;;;;;;;2.47;2.27;;;;;;;;;;4937780;29;20221;-96
2023/04/29 13:14:35;;;;;;;4.37;2.80;;;;;;;;;;4936638;29;20221;-96
2023/04/29 13:17:02;;;;;;;4.10;2.90;;;;;;;;;;4936272;29;20219;-95
2023/04/29 13:19:29;;;;;;;6.53;2.77;;;;;;;;;;4936579;29;20236;-95
2023/04/29 13:21:56;;;;;;;19.03;12.53;;;;;;;;;;4936292;29;20214;-95
2023/04/29 13:24:23;;;;;;;3.70;3.23;;;;;;;;;;4936933;29;20654;-95
2023/04/29 13:26:50;;;;;;;4.43;2.63;;;;;;;;;;4938666;29;20225;-96
2023/04/29 13:29:19;;;;;;;7.40;2.70;;;;;;;;;;4938610;29;20285;-95
2023/04/29 13:31:45;;;;;;;3.70;2.60;;;;;;;;;;4942195;29;20205;-95
2023/04/29 13:34:12;;;;;;;2.97;2.50;;;;;;;;;;4942688;29;20213;-95
2023/04/29 13:36:39;;;;;;;14.53;2.87;;;;;;;;;;4941875;29;20226;-95
2023/04/29 13:39:06;;;;;;;3.40;2.50;;;;;;;;;;4941727;29;20276;-95
2023/04/29 13:41:33;;;;;;;3.43;2.73;;;;;;;;;;4941859;29;20284;-96
2023/04/29 13:44:00;;;;;;;3.67;2.40;;;;;;;;;;4941233;29;21069;-95
2023/04/29 13:46:28;;;;;;;2.60;2.47;;;;;;;;;;4941547;29;20210;-96
2023/04/29 13:48:57;;;;;;;4.40;2.67;;;;;;;;;;4941461;29;20211;-95
2023/04/29 13:51:23;;;;;;;4.60;2.80;;;;;;;;;;4941413;29;20210;-96
2023/04/29 13:53:50;;;;;;;2.30;2.10;;;;;;;;;;4942148;29;20214;-96
2023/04/29 13:56:21;;;;;;;4.90;3.47;;;;;;;;;;4959254;29;20217;-96
2023/04/29 13:58:48;;;;;;;2.87;2.63;;;;;;;;;;4948434;29;20261;-96
2023/04/29 14:01:15;;;;;;;3.03;2.23;;;;;;;;;;4941542;29;20221;-95
2023/04/29 14:03:44;;;;;;;4.60;2.77;;;;;;;;;;4941304;29;20236;-96
2023/04/29 14:06:11;;;;;;;4.80;2.27;;;;;;;;;;4929063;29;20217;-95
2023/04/29 14:08:38;;;;;;;5.17;2.40;;;;;;;;;;4941120;29;20739;-95
2023/04/29 14:11:06;;;;;;;4.47;2.70;;;;;;;;;;4929256;29;20236;-95
2023/04/29 14:13:33;;;;;;;5.87;4.33;;;;;;;;;;4941409;29;20215;-96
2023/04/29 14:16:02;;;;;;;4.97;4.20;;;;;;;;;;4941351;29;20216;-95
2023/04/29 14:18:29;;;;;;;6.57;2.97;;;;;;;;;;4941190;29;20213;-95
2023/04/29 14:20:58;;;;;;;10.40;5.87;;;;;;;;;;4941310;29;20315;-96
2023/04/29 14:23:25;;;;;;;2.57;2.37;;;;;;;;;;4940842;29;20265;-95
2023/04/29 14:25:52;;;;;;;4.43;3.13;;;;;;;;;;4941851;29;20283;-95
2023/04/29 14:28:19;;;;;;;5.53;4.03;;;;;;;;;;4940962;29;20293;-95
2023/04/29 14:30:46;;;;;;;5.03;3.37;;;;;;;;;;4941389;29;20207;-96
2023/04/29 14:33:13;;;;;;;4.17;3.23;;;;;;;;;;4941052;29;20586;-96
2023/04/29 14:35:40;;;;;;;2.77;2.10;;;;;;;;;;4950682;28;20227;-95
2023/04/29 14:38:11;;;;;;;3.30;3.00;;;;;;;;;;4960709;29;20212;-96
2023/04/29 14:40:38;;;;;;;4.50;3.03;;;;;;;;;;4958524;28;20211;-95
2023/04/29 14:43:05;;;;;;;5.53;2.60;;;;;;;;;;4957640;28;20235;-96
2023/04/29 14:45:32;;;;;;;3.77;2.70;;;;;;;;;;4957544;29;20218;-96
2023/04/29 14:47:59;;;;;;;2.47;2.27;;;;;;;;;;4957338;28;20209;-96
2023/04/29 14:50:26;;;;;;;4.23;2.43;;;;;;;;;;4957396;29;20224;-95
2023/04/29 14:52:52;;;;;;;2.27;2.07;;;;;;;;;;4958266;29;20717;-95
2023/04/29 14:55:21;;;;;;;2.40;2.20;;;;;;;;;;4957273;29;20212;-95
2023/04/29 14:57:48;;;;;;;3.97;2.27;;;;;;;;;;4957178;29;20206;-96
2023/04/29 15:00:16;;;;;;;3.20;2.57;;;;;;;;;;4959899;29;20592;-95
2023/04/29 15:02:43;;;;;;;2.27;2.10;;;;;;;;;;4970238;28;20257;-96
2023/04/29 15:05:10;;;;;;;2.80;2.20;;;;;;;;;;4957113;29;20212;-96
2023/04/29 15:07:36;;;;;;;4.23;2.53;;;;;;;;;;4957298;28;20208;-96
2023/04/29 15:10:08;;;;;;;2.60;2.37;;;;;;;;;;4956850;29;20208;-96
2023/04/29 15:12:36;;;;;;;3.83;2.47;;;;;;;;;;4944316;29;20214;-95
2023/04/29 15:15:03;;;;;;;3.50;2.17;;;;;;;;;;4956541;29;20569;-96
2023/04/29 15:17:30;;;;;;;7.87;2.87;;;;;;;;;;4957064;28;20702;-96
2023/04/29 15:19:57;;;;;;;3.87;2.73;;;;;;;;;;4956895;28;20666;-96
2023/04/29 15:22:24;;;;;;;3.50;2.53;;;;;;;;;;4956932;28;20223;-96
2023/04/29 15:24:51;;;;;;;3.97;2.60;;;;;;;;;;4956673;28;20204;-96
2023/04/29 15:27:18;;;;;;;2.73;2.00;;;;;;;;;;4957095;29;20299;-96
2023/04/29 15:29:46;;;;;;;3.33;2.13;;;;;;;;;;4957167;28;20223;-95
2023/04/29 15:32:14;;;;;;;4.70;2.10;;;;;;;;;;4956859;29;20211;-96
2023/04/29 15:34:41;;;;;;;3.23;2.40;;;;;;;;;;4955004;29;20223;-95
2023/04/29 15:37:08;;;;;;;4.53;3.13;;;;;;;;;;4937171;29;20216;-96
2023/04/29 15:39:35;;;;;;;4.57;2.43;;;;;;;;;;4950303;29;20643;-96
2023/04/29 15:42:02;;;;;;;14.80;9.00;;;;;;;;;;4937582;29;20757;-95
2023/04/29 15:44:29;;;;;;;20.40;18.53;;;;;;;;;;4936466;29;20286;-96
2023/04/29 15:46:58;;;;;;;9.43;8.63;;;;;;;;;;4937430;29;20243;-95
2023/04/29 15:49:25;;;;;;;6.80;6.20;;;;;;;;;;4936871;29;20220;-96
2023/04/29 15:51:52;;;;;;;6.87;4.93;;;;;;;;;;4936649;29;20218;-95
2023/04/29 15:54:20;;;;;;;3.40;2.73;;;;;;;;;;4936465;29;20213;-95
2023/04/29 15:56:47;;;;;;;16.67;14.10;;;;;;;;;;4936750;29;20248;-95
2023/04/29 15:59:16;;;;;;;4.30;3.93;;;;;;;;;;4936572;29;20230;-95
2023/04/29 16:01:44;;;;;;;3.93;3.63;;;;;;;;;;4936717;29;20214;-95
2023/04/29 16:04:12;;;;;;;7.63;5.70;;;;;;;;;;4936028;29;20308;-94
2023/04/29 16:06:39;;;;;;;13.50;10.60;;;;;;;;;;4936556;29;20216;-96
2023/04/29 16:09:06;;;;;;;21.20;12.47;;;;;;;;;;4936323;29;20220;-94
2023/04/29 16:11:33;;;;;;;6.13;4.17;;;;;;;;;;4936260;29;20637;-95
2023/04/29 16:14:02;;;;;;;4.57;4.17;;;;;;;;;;4949126;29;20220;-94
2023/04/29 16:16:30;;;;;;;9.23;3.90;;;;;;;;;;4936358;29;20229;-95
2023/04/29 16:18:57;;;;;;;6.97;4.83;;;;;;;;;;4948970;29;20225;-94
2023/04/29 16:21:27;;;;;;;22.83;14.77;;;;;;;;;;4936205;29;20665;-95
2023/04/29 16:23:58;;;;;;;12.53;9.70;;;;;;;;;;4935995;29;20225;-95
2023/04/29 16:26:25;;;;;;;4.20;3.33;;;;;;;;;;4936408;29;20265;-95
2023/04/29 16:28:56;;;;;;;6.77;2.23;;;;;;;;;;4936189;29;20241;-95
2023/04/29 16:31:24;;;;;;;2.70;2.50;;;;;;;;;;4936147;29;20220;-95
2023/04/29 16:33:51;;;;;;;12.07;5.80;;;;;;;;;;4936258;29;20221;-95
2023/04/29 16:36:19;;;;;;;54.77;35.67;;;;;;;;;;4953620;29;20236;-95
2023/04/29 16:38:47;;;;;;;22.57;15.67;;;;;;;;;;4955229;28;20215;-94
2023/04/29 16:41:14;;;;;;;4.47;4.07;;;;;;;;;;4954617;29;20222;-95
2023/04/29 16:43:42;;;;;;;3.77;2.47;;;;;;;;;;4963823;28;20228;-95
2023/04/29 16:46:09;;;;;;;3.50;2.80;;;;;;;;;;4957874;28;20208;-96
2023/04/29 16:48:36;;;;;;;10.07;5.50;;;;;;;;;;4954973;28;20244;-95
2023/04/29 16:51:03;;;;;;;19.83;9.70;;;;;;;;;;4954877;29;20576;-95
2023/04/29 16:53:30;;;;;;;13.13;9.20;;;;;;;;;;4954838;29;20227;-95
2023/04/29 16:55:58;;;;;;;10.20;5.03;;;;;;;;;;4954524;29;20262;-95
2023/04/29 16:58:25;;;;;;;4.47;3.50;;;;;;;;;;4954864;28;20221;-95
2023/04/29 17:00:55;;;;;;;11.27;9.90;;;;;;;;;;4954503;29;20266;-94
2023/04/29 17:03:23;;;;;;;26.57;20.27;;;;;;;;;;4954602;28;20227;-95
2023/04/29 17:05:50;;;;;;;45.13;28.53;;;;;;;;;;4954246;29;20211;-94
2023/04/29 17:08:17;;;;;;;30.93;21.60;;;;;;;;;;4955041;28;20233;-94
2023/04/29 17:10:43;;;;;;;32.50;18.90;;;;;;;;;;4954428;29;20209;-96
2023/04/29 17:13:12;;;;;;;28.97;15.87;;;;;;;;;;4954369;28;20704;-96
2023/04/29 17:15:39;;;;;;;13.40;8.13;;;;;;;;;;4954508;28;20214;-94
2023/04/29 17:18:05;;;;;;;3.77;2.60;;;;;;;;;;4954381;29;20214;-95
2023/04/29 17:20:32;;;;;;;5.43;3.97;;;;;;;;;;4954165;28;20216;-95
2023/04/29 17:23:02;;;;;;;3.30;2.37;;;;;;;;;;4954675;28;20273;-94
2023/04/29 17:25:29;;;;;;;2.60;2.40;;;;;;;;;;4954494;28;20202;-95
2023/04/29 17:27:56;;;;;;;7.50;3.70;;;;;;;;;;4954577;29;20215;-95
2023/04/29 17:30:25;;;;;;;3.97;3.23;;;;;;;;;;4954427;29;20213;-94
2023/04/29 17:32:52;;;;;;;2.83;2.30;;;;;;;;;;4954620;29;20221;-95
2023/04/29 17:35:21;;;;;;;3.50;2.50;;;;;;;;;;4953895;28;20301;-95
2023/04/29 17:37:48;;;;;;;2.40;2.20;;;;;;;;;;4953755;29;20293;-94
2023/04/29 17:40:15;;;;;;;5.23;2.80;;;;;;;;;;4941770;29;20225;-96
2023/04/29 17:42:42;;;;;;;3.57;3.13;;;;;;;;;;4954132;29;20216;-95
2023/04/29 17:45:16;;;;;;;8.57;7.30;;;;;;;;;;4953719;29;20597;-96
2023/04/29 17:47:45;;;;;;;9.50;7.80;;;;;;;;;;4954001;29;20759;-96
2023/04/29 17:50:17;;;;;;;6.40;5.03;;;;;;;;;;4953907;29;20209;-95
2023/04/29 17:52:46;;;;;;;5.93;5.30;;;;;;;;;;4954403;29;20218;-95
2023/04/29 17:55:14;;;;;;;4.17;2.77;;;;;;;;;;4954004;28;20214;-95
2023/04/29 17:57:41;;;;;;;3.33;3.03;;;;;;;;;;4953945;29;20221;-94
2023/04/29 18:00:10;;;;;;;5.73;3.30;;;;;;;;;;4954360;29;20280;-95
2023/04/29 18:02:37;;;;;;;3.27;2.97;;;;;;;;;;4953890;29;20284;-95
2023/04/29 18:05:07;;;;;;;12.20;5.03;;;;;;;;;;4953456;29;20752;-95
2023/04/29 18:07:40;;;;;;;4.57;2.90;;;;;;;;;;4953651;29;20704;-95
2023/04/29 18:10:11;;;;;;;4.33;2.40;;;;;;;;;;4954105;28;20211;-95
2023/04/29 18:12:37;;;;;;;2.77;2.53;;;;;;;;;;4941685;29;20206;-95
2023/04/29 18:15:06;;;;;;;2.57;2.20;;;;;;;;;;4966855;28;20252;-95
2023/04/29 18:17:34;;;;;;;2.70;2.33;;;;;;;;;;4968876;28;20669;-94
2023/04/29 18:20:00;;;;;;;4.87;2.67;;;;;;;;;;4957073;29;20214;-94
2023/04/29 18:22:31;;;;;;;5.53;2.70;;;;;;;;;;4957496;29;20250;-94
2023/04/29 18:24:58;;;;;;;3.67;2.93;;;;;;;;;;4957005;29;20225;-95
2023/04/29 18:27:25;;;;;;;4.03;2.77;;;;;;;;;;4957527;28;20689;-94
2023/04/29 18:29:53;;;;;;;5.70;3.90;;;;;;;;;;4959324;28;20304;-94
2023/04/29 18:32:20;;;;;;;4.03;2.67;;;;;;;;;;4967622;28;20210;-95
2023/04/29 18:34:49;;;;;;;2.70;2.00;;;;;;;;;;4957555;28;20225;-95
2023/04/29 18:37:18;;;;;;;4.27;2.17;;;;;;;;;;4957217;29;20300;-95
2023/04/29 18:39:46;;;;;;;2.00;1.90;;;;;;;;;;4956777;29;20284;-94
2023/04/29 18:42:13;;;;;;;3.03;2.73;;;;;;;;;;4957640;29;20222;-94
2023/04/29 18:44:39;;;;;;;3.70;2.17;;;;;;;;;;4956471;28;20229;-94
2023/04/29 18:47:06;;;;;;;7.03;2.13;;;;;;;;;;4957351;29;20217;-94
2023/04/29 18:49:33;;;;;;;2.80;2.10;;;;;;;;;;4956874;29;20206;-95
2023/04/29 18:52:00;;;;;;;1.97;1.67;;;;;;;;;;4956833;29;20650;-94
2023/04/29 18:54:27;;;;;;;2.63;2.43;;;;;;;;;;4957147;28;20273;-94
2023/04/29 18:56:58;;;;;;;6.23;3.00;;;;;;;;;;4967452;28;20216;-93
2023/04/29 18:59:26;;;;;;;2.27;2.07;;;;;;;;;;4959143;28;20213;-94
2023/04/29 19:01:55;;;;;;;4.20;2.60;;;;;;;;;;4957234;29;20206;-94
2023/04/29 19:04:23;;;;;;;3.73;3.17;;;;;;;;;;4956668;29;20241;-94
2023/04/29 19:06:50;;;;;;;4.53;2.90;;;;;;;;;;4956736;29;20214;-94
2023/04/29 19:09:18;;;;;;;4.13;3.40;;;;;;;;;;4956459;29;20228;-94
2023/04/29 19:11:45;;;;;;;9.03;5.73;;;;;;;;;;4957875;29;20213;-94
2023/04/29 19:14:15;;;;;;;3.87;3.10;;;;;;;;;;4956702;29;20217;-95
2023/04/29 19:16:42;;;;;;;3.23;2.80;;;;;;;;;;4956657;28;20273;-94
2023/04/29 19:19:09;;;;;;;4.03;3.23;;;;;;;;;;4956443;29;20232;-94
2023/04/29 19:21:37;;;;;;;5.70;5.20;;;;;;;;;;4956370;29;20210;-94
2023/04/29 19:24:04;;;;;;;4.47;3.03;;;;;;;;;;4956402;29;20222;-94
2023/04/29 19:26:31;;;;;;;3.47;3.17;;;;;;;;;;4956004;28;20213;-94
2023/04/29 19:28:58;;;;;;;3.73;2.37;;;;;;;;;;4956404;29;20218;-95
2023/04/29 19:31:26;;;;;;;4.17;3.33;;;;;;;;;;4956705;29;20214;-93
2023/04/29 19:33:53;;;;;;;7.87;2.80;;;;;;;;;;4956633;29;20225;-94
2023/04/29 19:36:21;;;;;;;3.47;2.40;;;;;;;;;;4956249;29;20306;-94
2023/04/29 19:38:48;;;;;;;3.83;2.27;;;;;;;;;;4956187;28;20665;-94
2023/04/29 19:41:20;;;;;;;4.73;4.23;;;;;;;;;;4955952;28;20261;-94
2023/04/29 19:43:47;;;;;;;10.33;6.30;;;;;;;;;;4955744;29;20718;-92
2023/04/29 19:46:15;;;;;;;14.47;6.83;;;;;;;;;;4958887;28;20209;-94
2023/04/29 19:48:50;;;;;;;7.20;3.90;;;;;;;;;;4976706;28;20259;-95
2023/04/29 19:51:19;;;;;;;4.70;4.13;;;;;;;;;;4957303;28;20210;-94
2023/04/29 19:53:46;;;;;;;5.27;4.07;;;;;;;;;;4956149;28;20321;-95
2023/04/29 19:56:18;;;;;;;8.50;5.63;;;;;;;;;;4956017;29;20201;-94
2023/04/29 19:58:45;;;;;;;6.00;5.10;;;;;;;;;;4955836;29;20312;-92
2023/04/29 20:01:17;;;;;;;3.67;3.30;;;;;;;;;;4955828;29;20263;-94
2023/04/29 20:03:45;;;;;;;3.73;3.43;;;;;;;;;;4955465;28;20209;-93
2023/04/29 20:06:16;;;;;;;5.73;3.90;;;;;;;;;;4955451;29;20240;-94
2023/04/29 20:08:43;;;;;;;4.67;3.00;;;;;;;;;;4955507;28;20220;-95
2023/04/29 20:11:10;;;;;;;3.00;2.67;;;;;;;;;;4955732;29;20249;-93
2023/04/29 20:13:37;;;;;;;7.23;5.23;;;;;;;;;;4955221;29;20213;-93
2023/04/29 20:16:04;;;;;;;8.17;5.30;;;;;;;;;;4955348;29;20206;-93
2023/04/29 20:18:31;;;;;;;3.10;2.90;;;;;;;;;;4955130;29;20214;-93
2023/04/29 20:21:00;;;;;;;7.33;3.43;;;;;;;;;;4955155;29;20212;-92
2023/04/29 20:23:30;;;;;;;4.27;3.63;;;;;;;;;;4955304;29;20217;-94
2023/04/29 20:25:57;;;;;;;3.83;3.53;;;;;;;;;;4955254;29;20236;-94